Airfield :
LOGIN :

Register | Disclaimer

   EN    FR    IT 

 










Legend :    VFR   Marginal VFR   IFR   Intensive IFR   Very Intensive IFR
Visi :
Ceiling :
>= 8 km
>= 3000ft
5 to 8 km
1000 to 3000 ft
1500m to 5 km
500 to 1000 ft
800 to 1500m
200 to 500 ft
< 800m
< 200 ft
Symbols :   Thunderstorms  Fog  Heavy snow  Heavy precipitations  Wind > 20 kt
SIGMETs :     Misc.  Thunderstorms  Icing  Turbulence  Mountain Waves  Volcanic Ashes






- Airport Elevation : 56 ft
- IATA code : ILY


EGPI - Islay

CURRENT METAR :
  • 131620Z 28008KT 9999 FEW005 SCT013 BKN038 15/13 Q1021

EXPIRED METARs :
  • 131550Z 26007KT 9999 BKN036 16/13 Q1021
  • 131520Z 26009KT 9999 BKN038 17/11 Q1021
  • 131450Z 19006KT 9999 BKN041 19/12 Q1020
  • 131420Z 14010KT 9999 FEW028 BKN048 20/13 Q1020
  • 131350Z 13009KT 9999 FEW028 SCT049 19/12 Q1021
  • 131320Z 21008KT 9999 FEW030 22/14 Q1021

TAF TAF EGPI
Valid from the 13 at 15:00 until the 13 at 18:00 UTC


131400Z 1315/1318 14009KT 9999 FEW025 SCT035
BECMG 1315/1318 26012KT
PROB30
TEMPO 1316/1318 6000 -RA BKN008



MET'MAP, your aeronautical weather chart ! - Copyright ORBIFLY December 2007 - Disclaimer

ORBIFLY MET'MAP TEAM :

Programming & Development : Alexandra Zaïnal
Concept & original design : Baudouin d'Aumeries
Assistance for programming : Marc-Olivier Méhu
Technical & hardware support : Manuel Goepfert

Contact : metmap@orbifly.com




SOURCES & CREDITS :

   NOAA